SAS62F ESNQ-ESSA
Flight info
| Callsign | SAS62F |
|---|---|
| Flight time | 1h 18m |
| Altitude | 39000 |
| Route | VAGAS REKMI SIPRI N5 VACRA |
| Aircraft | A20N/M-SDE2E3FGHIRWXY/LB1 |
Departure
| Time | 2026-04-20 21:08 |
|---|---|
| Airport | Kiruna Airport (ESNQ) |
Arrival
| Time | 2026-04-20 22:26 |
|---|---|
| Airport | Stockholm-Arlanda Airport (ESSA) |
| Time | Latitude | Longitude | Altitude | Speed | Heading |
|---|---|---|---|---|---|
| 2026-04-20 20:52 | 67.82478 | 20.33376 | 1458 ft | 0 kts | 58° |
| 2026-04-20 21:02 | 67.82479 | 20.33380 | 1458 ft | 1 kts | 59° |
| 2026-04-20 21:03 | 67.82479 | 20.33417 | 1456 ft | 3 kts | 102° |
| 2026-04-20 21:03 | 67.82474 | 20.33465 | 1458 ft | 5 kts | 105° |
| 2026-04-20 21:03 | 67.82462 | 20.33582 | 1458 ft | 8 kts | 104° |
| 2026-04-20 21:03 | 67.82441 | 20.33756 | 1455 ft | 7 kts | 119° |
| 2026-04-20 21:04 | 67.82414 | 20.33871 | 1458 ft | 7 kts | 122° |
| 2026-04-20 21:04 | 67.82398 | 20.33998 | 1458 ft | 8 kts | 77° |
| 2026-04-20 21:04 | 67.82448 | 20.34125 | 1458 ft | 12 kts | 34° |
| 2026-04-20 21:04 | 67.82527 | 20.34265 | 1458 ft | 15 kts | 34° |
| 2026-04-20 21:05 | 67.82623 | 20.34436 | 1455 ft | 18 kts | 34° |
| 2026-04-20 21:05 | 67.82731 | 20.34629 | 1457 ft | 19 kts | 34° |
| 2026-04-20 21:05 | 67.82841 | 20.34821 | 1455 ft | 19 kts | 33° |
| 2026-04-20 21:05 | 67.82949 | 20.35013 | 1458 ft | 19 kts | 34° |
| 2026-04-20 21:06 | 67.83031 | 20.35146 | 1458 ft | 12 kts | 23° |
| 2026-04-20 21:06 | 67.83110 | 20.35207 | 1458 ft | 11 kts | 24° |
| 2026-04-20 21:06 | 67.83129 | 20.35302 | 1458 ft | 4 kts | 120° |
| 2026-04-20 21:06 | 67.83112 | 20.35303 | 1458 ft | 2 kts | 214° |
| 2026-04-20 21:07 | 67.83110 | 20.35301 | 1458 ft | 0 kts | 214° |
| 2026-04-20 21:07 | 67.83096 | 20.35275 | 1458 ft | 12 kts | 214° |
| 2026-04-20 21:07 | 67.82838 | 20.34810 | 1458 ft | 78 kts | 214° |
| 2026-04-20 21:07 | 67.82196 | 20.33683 | 1459 ft | 144 kts | 214° |
| 2026-04-20 21:08 | 67.81295 | 20.32091 | 1852 ft | 156 kts | 213° |
| 2026-04-20 21:08 | 67.80426 | 20.30497 | 2730 ft | 150 kts | 219° |
| 2026-04-20 21:08 | 67.79450 | 20.29027 | 3116 ft | 182 kts | 198° |
| 2026-04-20 21:08 | 67.78071 | 20.29146 | 3387 ft | 214 kts | 178° |
| 2026-04-20 21:09 | 67.76514 | 20.28744 | 3576 ft | 244 kts | 198° |
| 2026-04-20 21:09 | 67.74734 | 20.27981 | 4150 ft | 265 kts | 189° |
| 2026-04-20 21:09 | 67.72909 | 20.27269 | 5004 ft | 272 kts | 192° |
| 2026-04-20 21:09 | 67.70991 | 20.26561 | 5871 ft | 278 kts | 191° |
| 2026-04-20 21:10 | 67.69071 | 20.25905 | 6897 ft | 278 kts | 189° |
| 2026-04-20 21:10 | 67.67173 | 20.25282 | 7846 ft | 280 kts | 189° |
| 2026-04-20 21:10 | 67.65229 | 20.24654 | 8777 ft | 283 kts | 189° |
| 2026-04-20 21:10 | 67.63257 | 20.24025 | 9716 ft | 288 kts | 190° |
| 2026-04-20 21:11 | 67.61254 | 20.23391 | 10606 ft | 293 kts | 190° |
| 2026-04-20 21:11 | 67.59158 | 20.22723 | 11042 ft | 315 kts | 190° |
| 2026-04-20 21:11 | 67.56881 | 20.21999 | 11543 ft | 333 kts | 190° |
| 2026-04-20 21:11 | 67.54581 | 20.21281 | 12342 ft | 341 kts | 190° |
| 2026-04-20 21:12 | 67.52208 | 20.20544 | 13235 ft | 346 kts | 191° |
| 2026-04-20 21:12 | 67.49797 | 20.19796 | 14126 ft | 352 kts | 191° |
| 2026-04-20 21:12 | 67.47350 | 20.19037 | 14913 ft | 357 kts | 191° |
| 2026-04-20 21:12 | 67.44868 | 20.18269 | 15715 ft | 361 kts | 191° |
| 2026-04-20 21:13 | 67.42358 | 20.17494 | 16486 ft | 365 kts | 191° |
| 2026-04-20 21:13 | 67.39818 | 20.16711 | 17241 ft | 370 kts | 190° |
| 2026-04-20 21:13 | 67.37253 | 20.15922 | 18010 ft | 374 kts | 190° |
| 2026-04-20 21:13 | 67.34656 | 20.15114 | 18746 ft | 378 kts | 191° |
| 2026-04-20 21:14 | 67.32885 | 20.14537 | 19191 ft | 380 kts | 191° |
| 2026-04-20 21:14 | 67.29388 | 20.13354 | 20062 ft | 385 kts | 191° |
| 2026-04-20 21:14 | 67.26719 | 20.12436 | 20715 ft | 388 kts | 191° |
| 2026-04-20 21:14 | 67.24905 | 20.11812 | 21225 ft | 389 kts | 191° |
| 2026-04-20 21:15 | 67.22257 | 20.10905 | 21939 ft | 390 kts | 191° |
| 2026-04-20 21:15 | 67.18634 | 20.09670 | 22760 ft | 396 kts | 191° |
| 2026-04-20 21:15 | 67.15894 | 20.08776 | 23356 ft | 399 kts | 190° |
| 2026-04-20 21:15 | 67.13111 | 20.07990 | 23951 ft | 403 kts | 189° |
| 2026-04-20 21:16 | 67.11261 | 20.07507 | 24277 ft | 406 kts | 189° |
| 2026-04-20 21:16 | 67.07487 | 20.06557 | 24905 ft | 410 kts | 189° |
| 2026-04-20 21:16 | 67.04638 | 20.05842 | 25379 ft | 413 kts | 189° |
| 2026-04-20 21:16 | 67.01769 | 20.05113 | 25835 ft | 416 kts | 189° |
| 2026-04-20 21:17 | 66.98881 | 20.04369 | 26284 ft | 418 kts | 189° |
| 2026-04-20 21:17 | 66.95974 | 20.03613 | 26717 ft | 421 kts | 189° |
| 2026-04-20 21:17 | 66.93047 | 20.02849 | 27145 ft | 424 kts | 189° |
| 2026-04-20 21:17 | 66.90107 | 20.02081 | 27608 ft | 425 kts | 189° |
| 2026-04-20 21:18 | 66.87160 | 20.01312 | 28058 ft | 427 kts | 189° |
| 2026-04-20 21:18 | 66.84196 | 20.00539 | 28458 ft | 429 kts | 189° |
| 2026-04-20 21:18 | 66.81253 | 19.99774 | 28850 ft | 432 kts | 189° |
| 2026-04-20 21:18 | 66.78259 | 19.98998 | 29244 ft | 434 kts | 189° |
| 2026-04-20 21:19 | 66.75240 | 19.98217 | 29588 ft | 438 kts | 190° |
| 2026-04-20 21:19 | 66.72192 | 19.97431 | 29907 ft | 442 kts | 190° |
| 2026-04-20 21:19 | 66.70118 | 19.96897 | 30167 ft | 443 kts | 190° |
| 2026-04-20 21:20 | 66.62953 | 19.95065 | 30932 ft | 448 kts | 189° |
| 2026-04-20 21:20 | 66.59839 | 19.94272 | 31210 ft | 451 kts | 189° |
| 2026-04-20 21:20 | 66.57770 | 19.93746 | 31404 ft | 452 kts | 189° |
| 2026-04-20 21:20 | 66.54635 | 19.92951 | 31775 ft | 452 kts | 189° |
| 2026-04-20 21:21 | 66.51510 | 19.92163 | 32176 ft | 451 kts | 189° |
| 2026-04-20 21:21 | 66.48386 | 19.91376 | 32549 ft | 451 kts | 189° |
| 2026-04-20 21:21 | 66.44211 | 19.90326 | 33022 ft | 451 kts | 189° |
| 2026-04-20 21:21 | 66.42148 | 19.89808 | 33250 ft | 451 kts | 189° |
| 2026-04-20 21:22 | 66.39027 | 19.89026 | 33596 ft | 451 kts | 189° |
| 2026-04-20 21:22 | 66.35910 | 19.88247 | 33939 ft | 450 kts | 189° |
| 2026-04-20 21:22 | 66.32785 | 19.87467 | 34266 ft | 450 kts | 189° |
| 2026-04-20 21:22 | 66.29672 | 19.86692 | 34560 ft | 450 kts | 189° |
| 2026-04-20 21:23 | 66.26554 | 19.85918 | 34803 ft | 450 kts | 188° |
| 2026-04-20 21:23 | 66.23449 | 19.85151 | 35182 ft | 447 kts | 188° |
| 2026-04-20 21:23 | 66.20365 | 19.84392 | 35460 ft | 446 kts | 188° |
| 2026-04-20 21:23 | 66.17280 | 19.83631 | 35653 ft | 447 kts | 188° |
| 2026-04-20 21:24 | 66.14178 | 19.82867 | 35855 ft | 448 kts | 188° |
| 2026-04-20 21:24 | 66.11072 | 19.82105 | 36061 ft | 449 kts | 188° |
| 2026-04-20 21:24 | 66.07969 | 19.81345 | 36256 ft | 449 kts | 188° |
| 2026-04-20 21:24 | 66.04854 | 19.80585 | 36444 ft | 450 kts | 188° |
| 2026-04-20 21:25 | 66.01746 | 19.79828 | 36641 ft | 450 kts | 188° |
| 2026-04-20 21:25 | 65.98627 | 19.79071 | 36838 ft | 450 kts | 187° |
| 2026-04-20 21:25 | 65.95505 | 19.78315 | 37029 ft | 451 kts | 187° |
| 2026-04-20 21:25 | 65.92386 | 19.77561 | 37230 ft | 450 kts | 187° |
| 2026-04-20 21:26 | 65.89264 | 19.76810 | 37470 ft | 450 kts | 187° |
| 2026-04-20 21:26 | 65.86152 | 19.76062 | 37663 ft | 450 kts | 187° |
| 2026-04-20 21:26 | 65.83039 | 19.75316 | 37834 ft | 450 kts | 187° |
| 2026-04-20 21:26 | 65.79915 | 19.74568 | 38013 ft | 451 kts | 187° |
| 2026-04-20 21:27 | 65.76788 | 19.73822 | 38181 ft | 451 kts | 187° |
| 2026-04-20 21:27 | 65.73702 | 19.73087 | 38338 ft | 452 kts | 187° |
| 2026-04-20 21:27 | 65.70570 | 19.72343 | 38406 ft | 454 kts | 186° |
| 2026-04-20 21:28 | 65.64285 | 19.70856 | 38417 ft | 453 kts | 186° |
| 2026-04-20 21:28 | 65.58017 | 19.69380 | 38432 ft | 452 kts | 186° |
| 2026-04-20 21:29 | 65.51746 | 19.67911 | 38411 ft | 453 kts | 186° |
| 2026-04-20 21:29 | 65.45472 | 19.66448 | 38402 ft | 453 kts | 186° |
| 2026-04-20 21:30 | 65.39187 | 19.64989 | 38409 ft | 454 kts | 186° |
| 2026-04-20 21:30 | 65.32908 | 19.63539 | 38442 ft | 454 kts | 186° |
| 2026-04-20 21:31 | 65.26623 | 19.62094 | 38438 ft | 454 kts | 186° |
| 2026-04-20 21:31 | 65.20342 | 19.60657 | 38438 ft | 454 kts | 186° |
| 2026-04-20 21:32 | 65.14053 | 19.59225 | 38439 ft | 454 kts | 186° |
| 2026-04-20 21:32 | 65.07765 | 19.57800 | 38432 ft | 454 kts | 186° |
| 2026-04-20 21:33 | 65.01478 | 19.56383 | 38445 ft | 454 kts | 186° |
| 2026-04-20 21:33 | 64.95197 | 19.54972 | 38437 ft | 454 kts | 185° |
| 2026-04-20 21:34 | 64.88912 | 19.53568 | 38437 ft | 453 kts | 185° |
| 2026-04-20 21:34 | 64.82628 | 19.52171 | 38440 ft | 454 kts | 185° |
| 2026-04-20 21:35 | 64.76346 | 19.50781 | 38432 ft | 454 kts | 185° |
| 2026-04-20 21:35 | 64.70060 | 19.49396 | 38436 ft | 453 kts | 185° |
| 2026-04-20 21:36 | 64.63782 | 19.48019 | 38429 ft | 453 kts | 185° |
| 2026-04-20 21:36 | 64.57495 | 19.46647 | 38431 ft | 453 kts | 185° |
| 2026-04-20 21:37 | 64.51223 | 19.45284 | 38429 ft | 453 kts | 185° |
| 2026-04-20 21:37 | 64.44942 | 19.43926 | 38432 ft | 453 kts | 185° |
| 2026-04-20 21:38 | 64.38661 | 19.42574 | 38434 ft | 453 kts | 185° |
| 2026-04-20 21:38 | 64.32422 | 19.41237 | 38434 ft | 453 kts | 185° |
| 2026-04-20 21:39 | 64.26142 | 19.39898 | 38428 ft | 453 kts | 185° |
| 2026-04-20 21:39 | 64.19862 | 19.38565 | 38427 ft | 454 kts | 185° |
| 2026-04-20 21:40 | 64.13570 | 19.37235 | 38425 ft | 454 kts | 185° |
| 2026-04-20 21:40 | 64.07276 | 19.35910 | 38428 ft | 454 kts | 185° |
| 2026-04-20 21:41 | 64.00981 | 19.34592 | 38427 ft | 454 kts | 185° |
| 2026-04-20 21:41 | 63.94689 | 19.33280 | 38427 ft | 454 kts | 184° |
| 2026-04-20 21:42 | 63.88406 | 19.31976 | 38431 ft | 453 kts | 184° |
| 2026-04-20 21:42 | 63.82121 | 19.30677 | 38424 ft | 453 kts | 184° |
| 2026-04-20 21:43 | 63.75843 | 19.29386 | 38408 ft | 453 kts | 184° |
| 2026-04-20 21:43 | 63.69557 | 19.28099 | 38402 ft | 453 kts | 184° |
| 2026-04-20 21:44 | 63.63278 | 19.26818 | 38393 ft | 453 kts | 184° |
| 2026-04-20 21:44 | 63.57009 | 19.25545 | 38387 ft | 452 kts | 184° |
| 2026-04-20 21:45 | 63.50748 | 19.24280 | 38381 ft | 452 kts | 184° |
| 2026-04-20 21:45 | 63.44481 | 19.23019 | 38376 ft | 452 kts | 184° |
| 2026-04-20 21:46 | 63.38216 | 19.21764 | 38374 ft | 452 kts | 184° |
| 2026-04-20 21:46 | 63.31944 | 19.20514 | 38377 ft | 452 kts | 184° |
| 2026-04-20 21:47 | 63.25682 | 19.19270 | 38387 ft | 452 kts | 184° |
| 2026-04-20 21:47 | 63.19415 | 19.18031 | 38387 ft | 452 kts | 184° |
| 2026-04-20 21:48 | 63.13187 | 19.16805 | 38387 ft | 452 kts | 184° |
| 2026-04-20 21:48 | 63.06927 | 19.15578 | 38404 ft | 452 kts | 184° |
| 2026-04-20 21:49 | 63.00649 | 19.14353 | 38389 ft | 452 kts | 184° |
| 2026-04-20 21:49 | 62.94387 | 19.13136 | 38390 ft | 452 kts | 184° |
| 2026-04-20 21:50 | 62.88116 | 19.11923 | 38393 ft | 452 kts | 184° |
| 2026-04-20 21:50 | 62.81844 | 19.10715 | 38390 ft | 452 kts | 184° |
| 2026-04-20 21:51 | 62.75573 | 19.09512 | 38390 ft | 452 kts | 184° |
| 2026-04-20 21:51 | 62.69307 | 19.08314 | 38389 ft | 452 kts | 184° |
| 2026-04-20 21:52 | 62.63048 | 19.07124 | 38393 ft | 451 kts | 184° |
| 2026-04-20 21:52 | 62.56798 | 19.05940 | 38393 ft | 451 kts | 184° |
| 2026-04-20 21:53 | 62.50541 | 19.04760 | 38395 ft | 451 kts | 184° |
| 2026-04-20 21:53 | 62.44284 | 19.03585 | 38395 ft | 451 kts | 184° |
| 2026-04-20 21:54 | 62.38029 | 19.02415 | 38400 ft | 451 kts | 183° |
| 2026-04-20 21:54 | 62.31785 | 19.01252 | 38401 ft | 450 kts | 183° |
| 2026-04-20 21:55 | 62.25548 | 19.00095 | 38401 ft | 450 kts | 183° |
| 2026-04-20 21:55 | 62.19302 | 18.98941 | 38400 ft | 450 kts | 183° |
| 2026-04-20 21:56 | 62.13097 | 18.97800 | 38407 ft | 450 kts | 183° |
| 2026-04-20 21:56 | 62.06859 | 18.96657 | 38400 ft | 449 kts | 183° |
| 2026-04-20 21:57 | 62.00639 | 18.95522 | 38401 ft | 449 kts | 183° |
| 2026-04-20 21:57 | 61.94421 | 18.94392 | 38406 ft | 449 kts | 183° |
| 2026-04-20 21:58 | 61.88159 | 18.93259 | 38419 ft | 449 kts | 183° |
| 2026-04-20 21:58 | 61.81937 | 18.92139 | 38416 ft | 449 kts | 183° |
| 2026-04-20 21:59 | 61.75707 | 18.91021 | 38408 ft | 449 kts | 183° |
| 2026-04-20 21:59 | 61.69524 | 18.89916 | 38408 ft | 449 kts | 183° |
| 2026-04-20 22:00 | 61.63302 | 18.88808 | 38414 ft | 449 kts | 183° |
| 2026-04-20 22:00 | 61.57082 | 18.87706 | 38411 ft | 449 kts | 182° |
| 2026-04-20 22:01 | 61.50849 | 18.86605 | 38415 ft | 449 kts | 182° |
| 2026-04-20 22:01 | 61.44630 | 18.85511 | 38411 ft | 448 kts | 182° |
| 2026-04-20 22:02 | 61.38413 | 18.84422 | 38237 ft | 449 kts | 182° |
| 2026-04-20 22:02 | 61.35304 | 18.83879 | 37966 ft | 448 kts | 182° |
| 2026-04-20 22:02 | 61.32199 | 18.83337 | 37709 ft | 447 kts | 182° |
| 2026-04-20 22:02 | 61.29101 | 18.82798 | 37422 ft | 447 kts | 182° |
| 2026-04-20 22:03 | 61.26010 | 18.82261 | 37152 ft | 446 kts | 182° |
| 2026-04-20 22:03 | 61.22920 | 18.81725 | 36714 ft | 445 kts | 182° |
| 2026-04-20 22:03 | 61.19824 | 18.81191 | 35999 ft | 448 kts | 182° |
| 2026-04-20 22:03 | 61.16713 | 18.80656 | 35310 ft | 450 kts | 182° |
| 2026-04-20 22:04 | 61.13582 | 18.80118 | 34623 ft | 453 kts | 182° |
| 2026-04-20 22:04 | 61.10432 | 18.79578 | 33832 ft | 455 kts | 182° |
| 2026-04-20 22:04 | 61.07269 | 18.79035 | 33062 ft | 457 kts | 182° |
| 2026-04-20 22:04 | 61.04097 | 18.78492 | 32315 ft | 457 kts | 181° |
| 2026-04-20 22:05 | 61.00928 | 18.77949 | 31530 ft | 459 kts | 181° |
| 2026-04-20 22:05 | 60.97738 | 18.77405 | 30722 ft | 461 kts | 181° |
| 2026-04-20 22:05 | 60.94529 | 18.76860 | 29779 ft | 464 kts | 181° |
| 2026-04-20 22:05 | 60.91311 | 18.76313 | 28968 ft | 462 kts | 181° |
| 2026-04-20 22:06 | 60.88138 | 18.75769 | 28457 ft | 452 kts | 181° |
| 2026-04-20 22:06 | 60.85035 | 18.75002 | 27943 ft | 447 kts | 189° |
| 2026-04-20 22:06 | 60.82053 | 18.73365 | 27521 ft | 441 kts | 192° |
| 2026-04-20 22:06 | 60.79117 | 18.71572 | 26901 ft | 440 kts | 193° |
| 2026-04-20 22:07 | 60.76202 | 18.69734 | 26271 ft | 438 kts | 193° |
| 2026-04-20 22:07 | 60.73266 | 18.68067 | 25631 ft | 435 kts | 187° |
| 2026-04-20 22:07 | 60.70367 | 18.66923 | 25331 ft | 425 kts | 186° |
| 2026-04-20 22:07 | 60.67489 | 18.65853 | 25098 ft | 419 kts | 186° |
| 2026-04-20 22:08 | 60.64621 | 18.64826 | 24858 ft | 419 kts | 185° |
| 2026-04-20 22:08 | 60.61752 | 18.63821 | 24627 ft | 418 kts | 185° |
| 2026-04-20 22:08 | 60.58887 | 18.62829 | 24399 ft | 417 kts | 185° |
| 2026-04-20 22:08 | 60.56020 | 18.61843 | 24166 ft | 418 kts | 185° |
| 2026-04-20 22:09 | 60.53151 | 18.60862 | 23918 ft | 417 kts | 185° |
| 2026-04-20 22:09 | 60.50289 | 18.59885 | 23635 ft | 416 kts | 185° |
| 2026-04-20 22:09 | 60.47444 | 18.58917 | 23357 ft | 415 kts | 185° |
| 2026-04-20 22:09 | 60.44600 | 18.57951 | 23085 ft | 413 kts | 185° |
| 2026-04-20 22:10 | 60.41770 | 18.56992 | 22806 ft | 412 kts | 185° |
| 2026-04-20 22:10 | 60.38950 | 18.56038 | 22530 ft | 410 kts | 185° |
| 2026-04-20 22:10 | 60.36152 | 18.55093 | 22208 ft | 405 kts | 185° |
| 2026-04-20 22:10 | 60.33380 | 18.54158 | 21669 ft | 403 kts | 185° |
| 2026-04-20 22:11 | 60.30619 | 18.53230 | 21068 ft | 402 kts | 185° |
| 2026-04-20 22:11 | 60.27871 | 18.52308 | 20480 ft | 400 kts | 185° |
| 2026-04-20 22:11 | 60.25125 | 18.51388 | 19893 ft | 399 kts | 185° |
| 2026-04-20 22:11 | 60.22395 | 18.50475 | 19304 ft | 398 kts | 186° |
| 2026-04-20 22:12 | 60.19669 | 18.49565 | 18729 ft | 396 kts | 186° |
| 2026-04-20 22:12 | 60.16954 | 18.48660 | 18085 ft | 395 kts | 186° |
| 2026-04-20 22:12 | 60.14256 | 18.47761 | 17503 ft | 391 kts | 186° |
| 2026-04-20 22:12 | 60.11577 | 18.46869 | 16935 ft | 388 kts | 186° |
| 2026-04-20 22:13 | 60.08924 | 18.45989 | 16367 ft | 385 kts | 186° |
| 2026-04-20 22:13 | 60.07177 | 18.45409 | 15997 ft | 383 kts | 186° |
| 2026-04-20 22:13 | 60.04561 | 18.44544 | 15442 ft | 380 kts | 186° |
| 2026-04-20 22:13 | 60.01958 | 18.43684 | 14871 ft | 378 kts | 186° |
| 2026-04-20 22:14 | 59.99370 | 18.42831 | 14301 ft | 376 kts | 186° |
| 2026-04-20 22:14 | 59.96803 | 18.41985 | 13703 ft | 373 kts | 186° |
| 2026-04-20 22:14 | 59.94255 | 18.41146 | 13154 ft | 369 kts | 187° |
| 2026-04-20 22:14 | 59.91735 | 18.40319 | 12617 ft | 365 kts | 187° |
| 2026-04-20 22:15 | 59.89241 | 18.39501 | 12079 ft | 361 kts | 187° |
| 2026-04-20 22:15 | 59.86775 | 18.38694 | 11548 ft | 358 kts | 187° |
| 2026-04-20 22:15 | 59.84328 | 18.37894 | 11018 ft | 355 kts | 187° |
| 2026-04-20 22:15 | 59.81918 | 18.37107 | 10739 ft | 345 kts | 187° |
| 2026-04-20 22:16 | 59.79609 | 18.36350 | 10663 ft | 328 kts | 187° |
| 2026-04-20 22:16 | 59.77402 | 18.35628 | 10554 ft | 315 kts | 187° |
| 2026-04-20 22:16 | 59.75285 | 18.34899 | 10372 ft | 305 kts | 190° |
| 2026-04-20 22:16 | 59.73250 | 18.33769 | 10025 ft | 303 kts | 195° |
| 2026-04-20 22:17 | 59.71257 | 18.32455 | 9621 ft | 301 kts | 197° |
| 2026-04-20 22:17 | 59.69283 | 18.31120 | 9215 ft | 298 kts | 197° |
| 2026-04-20 22:17 | 59.67328 | 18.29797 | 8810 ft | 296 kts | 197° |
| 2026-04-20 22:17 | 59.65381 | 18.28486 | 8410 ft | 295 kts | 197° |
| 2026-04-20 22:18 | 59.63445 | 18.27188 | 8017 ft | 293 kts | 197° |
| 2026-04-20 22:18 | 59.61524 | 18.25902 | 7627 ft | 291 kts | 197° |
| 2026-04-20 22:18 | 59.59612 | 18.24624 | 7245 ft | 289 kts | 197° |
| 2026-04-20 22:18 | 59.57715 | 18.23359 | 6864 ft | 287 kts | 197° |
| 2026-04-20 22:19 | 59.55829 | 18.22068 | 6457 ft | 286 kts | 200° |
| 2026-04-20 22:19 | 59.54037 | 18.20410 | 6072 ft | 284 kts | 206° |
| 2026-04-20 22:19 | 59.52299 | 18.18594 | 5777 ft | 279 kts | 207° |
| 2026-04-20 22:19 | 59.50608 | 18.16807 | 5516 ft | 273 kts | 207° |
| 2026-04-20 22:20 | 59.49009 | 18.14897 | 5256 ft | 267 kts | 221° |
| 2026-04-20 22:20 | 59.47948 | 18.12074 | 5046 ft | 257 kts | 248° |
| 2026-04-20 22:20 | 59.47492 | 18.08692 | 4718 ft | 252 kts | 269° |
| 2026-04-20 22:20 | 59.47528 | 18.05274 | 4381 ft | 249 kts | 276° |
| 2026-04-20 22:21 | 59.47671 | 18.01902 | 4112 ft | 245 kts | 277° |
| 2026-04-20 22:21 | 59.47820 | 17.98653 | 3993 ft | 231 kts | 277° |
| 2026-04-20 22:21 | 59.47953 | 17.95683 | 3899 ft | 211 kts | 277° |
| 2026-04-20 22:21 | 59.48075 | 17.92884 | 3685 ft | 197 kts | 278° |
| 2026-04-20 22:22 | 59.48508 | 17.90464 | 3293 ft | 188 kts | 313° |
| 2026-04-20 22:22 | 59.49532 | 17.88929 | 2987 ft | 181 kts | 337° |
| 2026-04-20 22:22 | 59.50686 | 17.87956 | 2730 ft | 180 kts | 342° |
| 2026-04-20 22:22 | 59.51885 | 17.87429 | 2521 ft | 176 kts | 358° |
| 2026-04-20 22:23 | 59.53100 | 17.87538 | 2339 ft | 174 kts | 11° |
| 2026-04-20 22:23 | 59.54285 | 17.87938 | 2103 ft | 171 kts | 11° |
| 2026-04-20 22:23 | 59.55410 | 17.88321 | 1880 ft | 161 kts | 12° |
| 2026-04-20 22:23 | 59.56465 | 17.88700 | 1686 ft | 148 kts | 12° |
| 2026-04-20 22:24 | 59.57474 | 17.89062 | 1462 ft | 147 kts | 12° |
| 2026-04-20 22:24 | 59.58442 | 17.89409 | 1253 ft | 135 kts | 11° |
| 2026-04-20 22:24 | 59.59349 | 17.89735 | 1067 ft | 131 kts | 11° |
| 2026-04-20 22:24 | 59.60244 | 17.90062 | 854 ft | 131 kts | 11° |
| 2026-04-20 22:25 | 59.61135 | 17.90391 | 690 ft | 130 kts | 10° |
| 2026-04-20 22:25 | 59.62025 | 17.90695 | 501 ft | 129 kts | 9° |
| 2026-04-20 22:25 | 59.62907 | 17.91030 | 353 ft | 129 kts | 9° |
| 2026-04-20 22:25 | 59.63792 | 17.91341 | 173 ft | 129 kts | 9° |
| 2026-04-20 22:26 | 59.64577 | 17.91628 | 150 ft | 90 kts | 10° |
| 2026-04-20 22:26 | 59.65022 | 17.91795 | 146 ft | 41 kts | 14° |
| 2026-04-20 22:26 | 59.65197 | 17.91933 | 146 ft | 21 kts | 33° |
| 2026-04-20 22:27 | 59.65391 | 17.92278 | 141 ft | 15 kts | 44° |
| 2026-04-20 22:27 | 59.65461 | 17.92409 | 141 ft | 10 kts | 44° |
| 2026-04-20 22:27 | 59.65496 | 17.92515 | 141 ft | 9 kts | 86° |
| 2026-04-20 22:27 | 59.65460 | 17.92600 | 141 ft | 9 kts | 154° |
| 2026-04-20 22:28 | 59.65406 | 17.92651 | 141 ft | 9 kts | 153° |
| 2026-04-20 22:28 | 59.65366 | 17.92699 | 141 ft | 5 kts | 123° |
| 2026-04-20 22:28 | 59.65375 | 17.92767 | 140 ft | 6 kts | 69° |
| 2026-04-20 22:28 | 59.65386 | 17.92823 | 140 ft | 4 kts | 69° |
| 2026-04-20 22:29 | 59.65397 | 17.92883 | 140 ft | 5 kts | 71° |
| 2026-04-20 22:29 | 59.65389 | 17.92925 | 140 ft | 3 kts | 131° |
| 2026-04-20 22:29 | 59.65373 | 17.92953 | 140 ft | 2 kts | 139° |
| 2026-04-20 22:29 | 59.65371 | 17.92957 | 140 ft | 0 kts | 139° |